Time,TemperatureF,DewpointF,PressureIn,WindDirection,WindDirectionDegrees,WindSpeedMPH,WindSpeedGustMPH,Humidity,HourlyPrecipIn,Conditions,Clouds,dailyrainin,SoftwareType,DateUTC
2013-05-27 00:02:00,57.6,57.0,29.98,North,0,0.0,-999.0,98,-99.99,,,0.00,Acu-Link.com,2013-05-27 04:02:00,
2013-05-27 00:17:00,57.2,56.6,29.97,NNW,337,0.0,-999.0,98,-99.99,,,0.00,Acu-Link.com,2013-05-27 04:17:00,
2013-05-27 00:33:00,57.0,56.4,29.97,NNW,337,0.0,-999.0,98,-99.99,,,0.00,Acu-Link.com,2013-05-27 04:33:00,
2013-05-27 00:48:00,56.5,55.9,29.97,NNW,337,0.0,-999.0,98,-99.99,,,0.00,Acu-Link.com,2013-05-27 04:48:00,
2013-05-27 01:03:00,56.3,55.7,29.97,NNW,337,0.0,-999.0,98,-99.99,,,0.00,Acu-Link.com,2013-05-27 05:03:00,
2013-05-27 01:18:00,55.8,55.2,29.97,NNW,337,0.0,-999.0,98,-99.99,,,0.00,Acu-Link.com,2013-05-27 05:18:00,
2013-05-27 01:33:00,55.6,55.0,29.96,NNW,337,0.0,-999.0,98,-99.99,,,0.00,Acu-Link.com,2013-05-27 05:33:00,
2013-05-27 01:49:00,55.2,54.6,29.96,NNW,337,0.0,-999.0,98,-99.99,,,0.00,Acu-Link.com,2013-05-27 05:49:00,
2013-05-27 02:04:00,55.0,54.4,29.96,NNW,337,0.0,-999.0,98,-99.99,,,0.00,Acu-Link.com,2013-05-27 06:04:00,
2013-05-27 02:19:00,54.7,54.1,29.96,NNW,337,0.0,-999.0,98,-99.99,,,0.00,Acu-Link.com,2013-05-27 06:19:00,
2013-05-27 02:34:00,54.3,53.7,29.96,NNW,337,0.0,-999.0,98,-99.99,,,0.00,Acu-Link.com,2013-05-27 06:34:00,
2013-05-27 02:50:00,54.3,53.7,29.96,NNW,337,0.0,-999.0,98,-99.99,,,0.00,Acu-Link.com,2013-05-27 06:50:00,
2013-05-27 03:05:00,54.0,53.4,29.96,NNW,337,0.0,-999.0,98,-99.99,,,0.00,Acu-Link.com,2013-05-27 07:05:00,
2013-05-27 03:20:00,53.8,53.2,29.96,NNW,337,0.0,-999.0,98,-99.99,,,0.00,Acu-Link.com,2013-05-27 07:20:00,
2013-05-27 03:35:00,53.6,53.0,29.96,NNW,337,0.0,-999.0,98,-99.99,,,0.00,Acu-Link.com,2013-05-27 07:35:00,
2013-05-27 03:51:00,53.6,53.0,29.96,NNW,337,0.0,-999.0,98,-99.99,,,0.00,Acu-Link.com,2013-05-27 07:51:00,
2013-05-27 04:06:00,53.2,52.6,29.95,NNW,337,0.0,-999.0,98,-99.99,,,0.00,Acu-Link.com,2013-05-27 08:06:00,
2013-05-27 04:22:00,53.1,52.5,29.95,NNW,337,0.0,-999.0,98,-99.99,,,0.00,Acu-Link.com,2013-05-27 08:22:00,
2013-05-27 04:37:00,53.2,52.6,29.95,NNW,337,0.0,-999.0,98,-99.99,,,0.00,Acu-Link.com,2013-05-27 08:37:00,
2013-05-27 04:52:00,53.1,52.5,29.96,NNW,337,0.0,-999.0,98,-99.99,,,0.00,Acu-Link.com,2013-05-27 08:52:00,
2013-05-27 05:07:00,52.7,52.2,29.96,NNW,337,0.0,-999.0,98,-99.99,,,0.00,Acu-Link.com,2013-05-27 09:07:00,
2013-05-27 05:22:00,53.1,52.5,29.96,NNW,337,0.0,-999.0,98,-99.99,,,0.00,Acu-Link.com,2013-05-27 09:22:00,
2013-05-27 05:37:00,52.9,52.4,29.96,NNW,337,0.0,-999.0,98,-99.99,,,0.00,Acu-Link.com,2013-05-27 09:37:00,
2013-05-27 05:52:00,52.3,51.8,29.97,NNW,337,0.0,-999.0,98,-99.99,,,0.00,Acu-Link.com,2013-05-27 09:52:00,
2013-05-27 06:08:00,52.3,51.8,29.98,NNW,337,0.0,-999.0,98,-99.99,,,0.00,Acu-Link.com,2013-05-27 10:08:00,
2013-05-27 06:23:00,52.5,52.0,29.99,NNW,337,0.0,-999.0,98,-99.99,,,0.00,Acu-Link.com,2013-05-27 10:23:00,
2013-05-27 06:38:00,52.2,51.7,29.99,NNW,337,0.0,-999.0,98,-99.99,,,0.00,Acu-Link.com,2013-05-27 10:38:00,
2013-05-27 06:53:00,52.3,51.8,29.99,NNW,337,0.0,-999.0,98,-99.99,,,0.00,Acu-Link.com,2013-05-27 10:53:00,
2013-05-27 07:09:00,53.1,52.5,29.99,NNW,337,0.0,-999.0,98,-99.99,,,0.00,Acu-Link.com,2013-05-27 11:09:00,
2013-05-27 07:24:00,53.6,53.0,30.00,NNW,337,0.0,-999.0,98,-99.99,,,0.00,Acu-Link.com,2013-05-27 11:24:00,
2013-05-27 07:39:00,55.6,55.0,30.00,NNW,337,0.0,-999.0,98,-99.99,,,0.00,Acu-Link.com,2013-05-27 11:39:00,
2013-05-27 07:54:00,57.2,56.6,30.00,South,180,0.0,-999.0,98,-99.99,,,0.00,Acu-Link.com,2013-05-27 11:54:00,
2013-05-27 08:10:00,58.1,57.5,30.01,East,90,1.1,-999.0,98,-99.99,,,0.00,Acu-Link.com,2013-05-27 12:10:00,
2013-05-27 08:25:00,59.5,58.9,30.00,NNE,22,1.7,-999.0,98,-99.99,,,0.00,Acu-Link.com,2013-05-27 12:25:00,
2013-05-27 08:40:00,60.6,60.0,30.00,NNE,22,2.2,-999.0,98,-99.99,,,0.00,Acu-Link.com,2013-05-27 12:40:00,
2013-05-27 08:55:00,61.5,60.9,30.01,East,90,1.1,-999.0,98,-99.99,,,0.00,Acu-Link.com,2013-05-27 12:55:00,
2013-05-27 09:11:00,63.1,59.5,30.01,South,180,2.2,-999.0,88,-99.99,,,0.00,Acu-Link.com,2013-05-27 13:11:00,
2013-05-27 09:26:00,63.9,60.9,30.00,East,90,0.0,-999.0,90,-99.99,,,0.00,Acu-Link.com,2013-05-27 13:26:00,
2013-05-27 09:41:00,64.9,60.9,30.00,NW,315,2.7,-999.0,87,-99.99,,,0.00,Acu-Link.com,2013-05-27 13:41:00,
2013-05-27 09:56:00,66.7,61.7,30.00,NNW,337,0.0,-999.0,84,-99.99,,,0.00,Acu-Link.com,2013-05-27 13:56:00,
2013-05-27 10:11:00,68.2,60.3,29.98,South,180,1.7,-999.0,76,-99.99,,,0.00,Acu-Link.com,2013-05-27 14:11:00,
2013-05-27 10:27:00,69.8,63.0,29.98,West,270,1.7,-999.0,79,-99.99,,,0.00,Acu-Link.com,2013-05-27 14:27:00,
2013-05-27 10:42:00,71.6,62.1,29.98,NE,45,2.7,-999.0,72,-99.99,,,0.00,Acu-Link.com,2013-05-27 14:42:00,
2013-05-27 10:57:00,72.5,61.3,29.96,SSE,157,2.2,-999.0,68,-99.99,,,0.00,Acu-Link.com,2013-05-27 14:57:00,
2013-05-27 11:13:00,74.5,60.6,29.97,SSE,157,3.2,-999.0,62,-99.99,,,0.00,Acu-Link.com,2013-05-27 15:13:00,
2013-05-27 11:28:00,75.6,60.2,29.95,SSE,157,3.2,-999.0,59,-99.99,,,0.00,Acu-Link.com,2013-05-27 15:28:00,
2013-05-27 11:43:00,76.6,60.7,29.96,South,180,2.7,-999.0,58,-99.99,,,0.00,Acu-Link.com,2013-05-27 15:43:00,
2013-05-27 11:59:00,78.6,61.6,29.96,SW,225,2.2,-999.0,56,-99.99,,,0.00,Acu-Link.com,2013-05-27 15:59:00,
2013-05-27 12:14:00,78.8,59.7,29.95,South,180,1.1,-999.0,52,-99.99,,,0.00,Acu-Link.com,2013-05-27 16:14:00,
2013-05-27 12:29:00,80.6,60.8,29.95,South,180,1.1,-999.0,51,-99.99,,,0.00,Acu-Link.com,2013-05-27 16:29:00,
2013-05-27 12:44:00,81.1,60.7,29.94,SE,135,3.2,-999.0,50,-99.99,,,0.00,Acu-Link.com,2013-05-27 16:44:00,
2013-05-27 12:59:00,82.4,58.3,29.93,ESE,112,2.2,-999.0,44,-99.99,,,0.00,Acu-Link.com,2013-05-27 16:59:00,
2013-05-27 13:15:00,84.6,60.3,29.93,WNW,292,1.1,-999.0,44,-99.99,,,0.00,Acu-Link.com,2013-05-27 17:15:00,
2013-05-27 13:30:00,87.1,62.5,29.92,WSW,247,2.2,-999.0,44,-99.99,,,0.00,Acu-Link.com,2013-05-27 17:30:00,
2013-05-27 13:45:00,90.0,58.6,29.92,West,270,5.8,-999.0,35,-99.99,,,0.00,Acu-Link.com,2013-05-27 17:45:00,
2013-05-27 14:00:00,90.7,59.2,29.92,NNE,22,3.2,-999.0,35,-99.99,,,0.00,Acu-Link.com,2013-05-27 18:00:00,
2013-05-27 14:15:00,91.2,58.9,29.91,WSW,247,3.2,-999.0,34,-99.99,,,0.00,Acu-Link.com,2013-05-27 18:15:00,
2013-05-27 14:31:00,88.9,60.0,29.91,South,180,1.1,-999.0,38,-99.99,,,0.00,Acu-Link.com,2013-05-27 18:31:00,
2013-05-27 14:46:00,90.5,59.1,29.90,SW,225,3.7,-999.0,35,-99.99,,,0.00,Acu-Link.com,2013-05-27 18:46:00,
2013-05-27 15:01:00,89.4,60.4,29.89,West,270,4.7,-999.0,38,-99.99,,,0.00,Acu-Link.com,2013-05-27 19:01:00,
2013-05-27 15:16:00,90.1,60.3,29.89,South,180,3.2,-999.0,37,-99.99,,,0.00,Acu-Link.com,2013-05-27 19:16:00,
2013-05-27 15:31:00,90.7,57.6,29.89,SSE,157,6.8,-999.0,33,-99.99,,,0.00,Acu-Link.com,2013-05-27 19:31:00,
2013-05-27 15:47:00,89.2,57.9,29.87,East,90,2.2,-999.0,35,-99.99,,,0.00,Acu-Link.com,2013-05-27 19:47:00,
2013-05-27 16:02:00,89.1,57.8,29.87,South,180,5.3,-999.0,35,-99.99,,,0.00,Acu-Link.com,2013-05-27 20:02:00,
2013-05-27 16:17:00,91.6,58.4,29.86,SW,225,1.7,-999.0,33,-99.99,,,0.00,Acu-Link.com,2013-05-27 20:17:00,
2013-05-27 16:32:00,90.0,58.6,29.86,South,180,1.7,-999.0,35,-99.99,,,0.00,Acu-Link.com,2013-05-27 20:32:00,
2013-05-27 16:48:00,89.8,57.6,29.86,SSE,157,3.7,-999.0,34,-99.99,,,0.00,Acu-Link.com,2013-05-27 20:48:00,
2013-05-27 17:03:00,88.2,59.3,29.87,WNW,292,2.2,-999.0,38,-99.99,,,0.00,Acu-Link.com,2013-05-27 21:03:00,
2013-05-27 17:18:00,87.6,59.5,29.86,WNW,292,3.2,-999.0,39,-99.99,,,0.00,Acu-Link.com,2013-05-27 21:18:00,
2013-05-27 17:33:00,86.2,60.4,29.86,ESE,112,2.7,-999.0,42,-99.99,,,0.00,Acu-Link.com,2013-05-27 21:33:00,
2013-05-27 17:49:00,85.6,59.8,29.86,SSW,202,2.2,-999.0,42,-99.99,,,0.00,Acu-Link.com,2013-05-27 21:49:00,
2013-05-27 18:04:00,84.0,59.1,29.86,South,180,2.7,-999.0,43,-99.99,,,0.00,Acu-Link.com,2013-05-27 22:04:00,
2013-05-27 18:19:00,82.6,57.8,29.85,South,180,6.3,-999.0,43,-99.99,,,0.00,Acu-Link.com,2013-05-27 22:19:00,
2013-05-27 18:34:00,82.2,59.3,29.85,SSE,157,2.7,-999.0,46,-99.99,,,0.00,Acu-Link.com,2013-05-27 22:34:00,
2013-05-27 18:49:00,82.0,60.9,29.85,SSW,202,3.7,-999.0,49,-99.99,,,0.00,Acu-Link.com,2013-05-27 22:49:00,
2013-05-27 19:04:00,81.7,61.8,29.85,SSW,202,1.7,-999.0,51,-99.99,,,0.00,Acu-Link.com,2013-05-27 23:04:00,
2013-05-27 19:19:00,81.0,60.6,29.84,South,180,1.7,-999.0,50,-99.99,,,0.00,Acu-Link.com,2013-05-27 23:19:00,
2013-05-27 19:35:00,81.0,61.1,29.84,South,180,2.2,-999.0,51,-99.99,,,0.00,Acu-Link.com,2013-05-27 23:35:00,
2013-05-27 19:50:00,79.9,59.6,29.84,SSE,157,2.7,-999.0,50,-99.99,,,0.00,Acu-Link.com,2013-05-27 23:50:00,
2013-05-27 20:05:00,78.8,59.1,29.84,South,180,0.0,-999.0,51,-99.99,,,0.00,Acu-Link.com,2013-05-28 00:05:00,
2013-05-27 20:21:00,77.5,58.5,29.85,South,180,0.0,-999.0,52,-99.99,,,0.00,Acu-Link.com,2013-05-28 00:21:00,
2013-05-27 20:36:00,76.5,58.6,29.85,SSW,202,1.7,-999.0,54,-99.99,,,0.00,Acu-Link.com,2013-05-28 00:36:00,
2013-05-27 20:51:00,75.6,58.3,29.85,SSW,202,0.0,-999.0,55,-99.99,,,0.00,Acu-Link.com,2013-05-28 00:51:00,
2013-05-27 21:06:00,74.7,59.4,29.86,WSW,247,0.0,-999.0,59,-99.99,,,0.00,Acu-Link.com,2013-05-28 01:06:00,
2013-05-27 21:22:00,72.7,58.9,29.86,SSE,157,0.0,-999.0,62,-99.99,,,0.00,Acu-Link.com,2013-05-28 01:22:00,
2013-05-27 21:37:00,71.6,59.6,29.87,NE,45,0.0,-999.0,66,-99.99,,,0.00,Acu-Link.com,2013-05-28 01:37:00,
2013-05-27 21:52:00,70.3,60.0,29.87,NE,45,0.0,-999.0,70,-99.99,,,0.00,Acu-Link.com,2013-05-28 01:52:00,
2013-05-27 22:07:00,68.7,61.2,29.88,South,180,0.0,-999.0,77,-99.99,,,0.00,Acu-Link.com,2013-05-28 02:07:00,
2013-05-27 22:23:00,67.6,62.9,29.88,SSE,157,0.0,-999.0,85,-99.99,,,0.00,Acu-Link.com,2013-05-28 02:23:00,
2013-05-27 22:38:00,66.7,63.0,29.88,NNE,22,0.0,-999.0,88,-99.99,,,0.00,Acu-Link.com,2013-05-28 02:38:00,
2013-05-27 22:54:00,66.0,64.5,29.88,West,270,0.0,-999.0,95,-99.99,,,0.00,Acu-Link.com,2013-05-28 02:54:00,
2013-05-27 23:09:00,65.1,64.5,29.88,West,270,0.0,-999.0,98,-99.99,,,0.00,Acu-Link.com,2013-05-28 03:09:00,
2013-05-27 23:25:00,64.6,64.0,29.88,West,270,0.0,-999.0,98,-99.99,,,0.00,Acu-Link.com,2013-05-28 03:25:00,
2013-05-27 23:40:00,64.0,63.4,29.89,West,270,0.0,-999.0,98,-99.99,,,0.00,Acu-Link.com,2013-05-28 03:40:00,
2013-05-27 23:55:00,63.9,63.3,29.88,WSW,247,0.0,-999.0,98,-99.99,,,0.00,Acu-Link.com,2013-05-28 03:55:00,